sensor_id;sensor_type;location;lat;lon;timestamp;pressure;altitude;pressure_sealevel;temperature;humidity
79481;BME280;68944;48.262;14.208;2024-03-06T00:00:25;98275.94;;;5.01;100.00
79481;BME280;68944;48.262;14.208;2024-03-06T00:02:51;98282.28;;;4.92;100.00
79481;BME280;68944;48.262;14.208;2024-03-06T00:05:16;98285.72;;;4.93;100.00
79481;BME280;68944;48.262;14.208;2024-03-06T00:07:42;98295.25;;;4.94;100.00
79481;BME280;68944;48.262;14.208;2024-03-06T00:10:08;98291.69;;;5.01;100.00
79481;BME280;68944;48.262;14.208;2024-03-06T00:12:34;98292.09;;;4.98;100.00
79481;BME280;68944;48.262;14.208;2024-03-06T00:14:59;98302.66;;;5.05;100.00
79481;BME280;68944;48.262;14.208;2024-03-06T00:17:25;98295.66;;;5.12;100.00
79481;BME280;68944;48.262;14.208;2024-03-06T00:19:53;98291.56;;;5.25;100.00
79481;BME280;68944;48.262;14.208;2024-03-06T00:22:18;98296.44;;;5.28;100.00
79481;BME280;68944;48.262;14.208;2024-03-06T00:24:44;98288.09;;;5.24;100.00
79481;BME280;68944;48.262;14.208;2024-03-06T00:27:10;98294.59;;;5.44;100.00
79481;BME280;68944;48.262;14.208;2024-03-06T00:29:35;98297.47;;;5.49;100.00
79481;BME280;68944;48.262;14.208;2024-03-06T00:32:03;98292.22;;;5.49;100.00
79481;BME280;68944;48.262;14.208;2024-03-06T00:34:29;98294.72;;;5.35;100.00
79481;BME280;68944;48.262;14.208;2024-03-06T00:36:54;98294.53;;;5.22;100.00
79481;BME280;68944;48.262;14.208;2024-03-06T00:39:20;98296.00;;;5.24;100.00
79481;BME280;68944;48.262;14.208;2024-03-06T00:41:46;98294.53;;;5.22;100.00
79481;BME280;68944;48.262;14.208;2024-03-06T00:44:11;98286.31;;;5.25;100.00
79481;BME280;68944;48.262;14.208;2024-03-06T00:46:38;98293.91;;;5.20;100.00
79481;BME280;68944;48.262;14.208;2024-03-06T00:49:03;98292.94;;;5.21;100.00
79481;BME280;68944;48.262;14.208;2024-03-06T00:51:29;98295.44;;;5.29;100.00
79481;BME280;68944;48.262;14.208;2024-03-06T00:53:55;98288.19;;;5.31;100.00
79481;BME280;68944;48.262;14.208;2024-03-06T00:56:22;98285.63;;;5.01;100.00
79481;BME280;68944;48.262;14.208;2024-03-06T00:58:47;98282.25;;;4.70;100.00
79481;BME280;68944;48.262;14.208;2024-03-06T01:01:15;98291.00;;;4.62;100.00
79481;BME280;68944;48.262;14.208;2024-03-06T01:03:41;98289.63;;;4.66;100.00
79481;BME280;68944;48.262;14.208;2024-03-06T01:06:06;98289.41;;;4.61;100.00
79481;BME280;68944;48.262;14.208;2024-03-06T01:08:32;98284.13;;;4.76;100.00
79481;BME280;68944;48.262;14.208;2024-03-06T01:10:57;98285.22;;;4.67;100.00
79481;BME280;68944;48.262;14.208;2024-03-06T01:13:23;98285.38;;;4.81;100.00
79481;BME280;68944;48.262;14.208;2024-03-06T01:15:49;98283.31;;;4.76;100.00
79481;BME280;68944;48.262;14.208;2024-03-06T01:18:14;98281.78;;;4.82;100.00
79481;BME280;68944;48.262;14.208;2024-03-06T01:20:40;98278.97;;;4.83;100.00
79481;BME280;68944;48.262;14.208;2024-03-06T01:23:06;98274.28;;;4.63;100.00
79481;BME280;68944;48.262;14.208;2024-03-06T01:25:31;98275.19;;;4.40;100.00
79481;BME280;68944;48.262;14.208;2024-03-06T01:27:58;98275.53;;;4.37;100.00
79481;BME280;68944;48.262;14.208;2024-03-06T01:30:23;98277.00;;;4.40;100.00
79481;BME280;68944;48.262;14.208;2024-03-06T01:32:49;98280.03;;;4.13;100.00
79481;BME280;68944;48.262;14.208;2024-03-06T01:35:14;98275.78;;;4.27;100.00
79481;BME280;68944;48.262;14.208;2024-03-06T01:37:40;98280.06;;;4.43;100.00
79481;BME280;68944;48.262;14.208;2024-03-06T01:40:06;98277.25;;;4.30;100.00
79481;BME280;68944;48.262;14.208;2024-03-06T01:42:32;98270.53;;;4.27;100.00
79481;BME280;68944;48.262;14.208;2024-03-06T01:44:58;98271.03;;;4.31;100.00
79481;BME280;68944;48.262;14.208;2024-03-06T01:47:24;98267.66;;;4.37;100.00
79481;BME280;68944;48.262;14.208;2024-03-06T01:49:50;98268.94;;;4.41;100.00
79481;BME280;68944;48.262;14.208;2024-03-06T01:52:17;98269.56;;;4.43;100.00
79481;BME280;68944;48.262;14.208;2024-03-06T01:54:44;98267.56;;;4.46;100.00
79481;BME280;68944;48.262;14.208;2024-03-06T01:57:11;98264.41;;;4.50;100.00
79481;BME280;68944;48.262;14.208;2024-03-06T01:59:40;98270.28;;;4.52;100.00
79481;BME280;68944;48.262;14.208;2024-03-06T02:02:07;98267.13;;;4.42;100.00
79481;BME280;68944;48.262;14.208;2024-03-06T02:04:37;98269.22;;;4.47;100.00
79481;BME280;68944;48.262;14.208;2024-03-06T02:07:03;98271.28;;;4.51;100.00
79481;BME280;68944;48.262;14.208;2024-03-06T02:09:32;98265.41;;;4.49;100.00
79481;BME280;68944;48.262;14.208;2024-03-06T02:11:57;98262.59;;;4.51;100.00
79481;BME280;68944;48.262;14.208;2024-03-06T02:14:23;98257.06;;;4.46;100.00
79481;BME280;68944;48.262;14.208;2024-03-06T02:16:49;98266.03;;;4.51;100.00
79481;BME280;68944;48.262;14.208;2024-03-06T02:19:14;98261.97;;;4.49;100.00
79481;BME280;68944;48.262;14.208;2024-03-06T02:21:40;98262.69;;;4.58;100.00
79481;BME280;68944;48.262;14.208;2024-03-06T02:24:06;98265.31;;;4.58;100.00
79481;BME280;68944;48.262;14.208;2024-03-06T02:26:33;98266.59;;;4.47;100.00
79481;BME280;68944;48.262;14.208;2024-03-06T02:28:59;98264.69;;;4.40;100.00
79481;BME280;68944;48.262;14.208;2024-03-06T02:31:25;98251.75;;;4.39;100.00
79481;BME280;68944;48.262;14.208;2024-03-06T02:33:57;98260.69;;;4.14;100.00
79481;BME280;68944;48.262;14.208;2024-03-06T02:36:24;98274.34;;;4.09;100.00
79481;BME280;68944;48.262;14.208;2024-03-06T02:38:49;98271.28;;;4.21;100.00
79481;BME280;68944;48.262;14.208;2024-03-06T02:41:15;98274.97;;;4.27;100.00
79481;BME280;68944;48.262;14.208;2024-03-06T02:43:41;98276.91;;;4.33;100.00
79481;BME280;68944;48.262;14.208;2024-03-06T02:46:07;98276.16;;;4.24;100.00
79481;BME280;68944;48.262;14.208;2024-03-06T02:48:32;98277.50;;;4.20;100.00
79481;BME280;68944;48.262;14.208;2024-03-06T02:50:58;98281.03;;;4.12;100.00
79481;BME280;68944;48.262;14.208;2024-03-06T02:53:26;98274.03;;;3.89;100.00
79481;BME280;68944;48.262;14.208;2024-03-06T02:55:53;98285.31;;;3.90;100.00
79481;BME280;68944;48.262;14.208;2024-03-06T02:58:18;98284.75;;;3.79;100.00
79481;BME280;68944;48.262;14.208;2024-03-06T03:00:44;98287.25;;;3.72;100.00
79481;BME280;68944;48.262;14.208;2024-03-06T03:03:10;98281.00;;;3.73;100.00
79481;BME280;68944;48.262;14.208;2024-03-06T03:05:38;98273.25;;;3.80;100.00
79481;BME280;68944;48.262;14.208;2024-03-06T03:08:05;98271.03;;;3.92;100.00
79481;BME280;68944;48.262;14.208;2024-03-06T03:10:31;98268.69;;;3.59;100.00
79481;BME280;68944;48.262;14.208;2024-03-06T03:12:56;98263.50;;;3.50;100.00
79481;BME280;68944;48.262;14.208;2024-03-06T03:15:22;98273.28;;;3.33;100.00
79481;BME280;68944;48.262;14.208;2024-03-06T03:17:47;98273.44;;;3.32;100.00
79481;BME280;68944;48.262;14.208;2024-03-06T03:20:14;98269.75;;;3.49;100.00
79481;BME280;68944;48.262;14.208;2024-03-06T03:22:42;98266.13;;;3.50;100.00
79481;BME280;68944;48.262;14.208;2024-03-06T03:25:12;98276.13;;;3.47;100.00
79481;BME280;68944;48.262;14.208;2024-03-06T03:27:38;98273.06;;;3.43;100.00
79481;BME280;68944;48.262;14.208;2024-03-06T03:30:09;98274.34;;;3.47;100.00
79481;BME280;68944;48.262;14.208;2024-03-06T03:32:35;98272.66;;;3.55;100.00
79481;BME280;68944;48.262;14.208;2024-03-06T03:35:00;98268.22;;;3.55;100.00
79481;BME280;68944;48.262;14.208;2024-03-06T03:37:26;98269.63;;;3.43;100.00
79481;BME280;68944;48.262;14.208;2024-03-06T03:39:52;98275.38;;;3.38;100.00
79481;BME280;68944;48.262;14.208;2024-03-06T03:42:17;98277.13;;;3.46;100.00
79481;BME280;68944;48.262;14.208;2024-03-06T03:44:43;98274.03;;;3.42;100.00
79481;BME280;68944;48.262;14.208;2024-03-06T03:47:08;98287.44;;;3.47;100.00
79481;BME280;68944;48.262;14.208;2024-03-06T03:49:34;98285.50;;;3.41;100.00
79481;BME280;68944;48.262;14.208;2024-03-06T03:52:00;98279.84;;;3.52;100.00
79481;BME280;68944;48.262;14.208;2024-03-06T03:54:26;98263.22;;;3.45;100.00
79481;BME280;68944;48.262;14.208;2024-03-06T03:56:51;98268.22;;;3.55;100.00
79481;BME280;68944;48.262;14.208;2024-03-06T03:59:17;98274.59;;;3.52;100.00
79481;BME280;68944;48.262;14.208;2024-03-06T04:01:44;98277.94;;;3.46;100.00
79481;BME280;68944;48.262;14.208;2024-03-06T04:04:10;98274.69;;;3.44;100.00
79481;BME280;68944;48.262;14.208;2024-03-06T04:06:36;98280.38;;;3.48;100.00
79481;BME280;68944;48.262;14.208;2024-03-06T04:09:01;98271.34;;;3.50;100.00
79481;BME280;68944;48.262;14.208;2024-03-06T04:11:28;98273.69;;;3.45;100.00
79481;BME280;68944;48.262;14.208;2024-03-06T04:13:54;98270.06;;;3.46;100.00
79481;BME280;68944;48.262;14.208;2024-03-06T04:16:20;98276.25;;;3.53;100.00
79481;BME280;68944;48.262;14.208;2024-03-06T04:18:46;98256.94;;;3.55;100.00
79481;BME280;68944;48.262;14.208;2024-03-06T04:21:11;98275.53;;;3.60;100.00
79481;BME280;68944;48.262;14.208;2024-03-06T04:23:37;98271.56;;;3.64;100.00
79481;BME280;68944;48.262;14.208;2024-03-06T04:26:03;98281.59;;;3.60;100.00
79481;BME280;68944;48.262;14.208;2024-03-06T04:28:29;98282.44;;;3.61;100.00
79481;BME280;68944;48.262;14.208;2024-03-06T04:30:55;98279.91;;;3.68;100.00
79481;BME280;68944;48.262;14.208;2024-03-06T04:33:21;98274.19;;;3.64;100.00
79481;BME280;68944;48.262;14.208;2024-03-06T04:35:46;98277.50;;;3.66;100.00
79481;BME280;68944;48.262;14.208;2024-03-06T04:38:12;98289.06;;;3.72;100.00
79481;BME280;68944;48.262;14.208;2024-03-06T04:40:39;98283.09;;;3.78;100.00
79481;BME280;68944;48.262;14.208;2024-03-06T04:43:04;98290.19;;;3.78;100.00
79481;BME280;68944;48.262;14.208;2024-03-06T04:45:30;98286.34;;;3.80;100.00
79481;BME280;68944;48.262;14.208;2024-03-06T04:47:55;98294.59;;;3.77;100.00
79481;BME280;68944;48.262;14.208;2024-03-06T04:50:21;98288.81;;;3.82;100.00
79481;BME280;68944;48.262;14.208;2024-03-06T04:52:46;98301.56;;;3.85;100.00
79481;BME280;68944;48.262;14.208;2024-03-06T04:55:12;98301.84;;;3.90;100.00
79481;BME280;68944;48.262;14.208;2024-03-06T04:57:43;98304.75;;;3.95;100.00
79481;BME280;68944;48.262;14.208;2024-03-06T05:00:10;98301.28;;;3.80;100.00
79481;BME280;68944;48.262;14.208;2024-03-06T05:02:36;98309.31;;;3.78;100.00
79481;BME280;68944;48.262;14.208;2024-03-06T05:05:03;98305.94;;;3.69;100.00
79481;BME280;68944;48.262;14.208;2024-03-06T05:07:30;98303.63;;;3.74;100.00
79481;BME280;68944;48.262;14.208;2024-03-06T05:09:56;98309.50;;;3.77;100.00
79481;BME280;68944;48.262;14.208;2024-03-06T05:12:23;98307.88;;;3.75;100.00
79481;BME280;68944;48.262;14.208;2024-03-06T05:14:49;98312.75;;;3.79;100.00
79481;BME280;68944;48.262;14.208;2024-03-06T05:17:14;98314.41;;;3.80;100.00
79481;BME280;68944;48.262;14.208;2024-03-06T05:19:41;98320.84;;;3.92;100.00
79481;BME280;68944;48.262;14.208;2024-03-06T05:22:07;98319.56;;;3.88;100.00
79481;BME280;68944;48.262;14.208;2024-03-06T05:24:32;98323.19;;;3.87;100.00
79481;BME280;68944;48.262;14.208;2024-03-06T05:26:59;98333.00;;;3.85;100.00
79481;BME280;68944;48.262;14.208;2024-03-06T05:29:24;98331.69;;;3.89;100.00
79481;BME280;68944;48.262;14.208;2024-03-06T05:31:50;98331.69;;;3.89;100.00
79481;BME280;68944;48.262;14.208;2024-03-06T05:34:15;98324.81;;;3.88;100.00
79481;BME280;68944;48.262;14.208;2024-03-06T05:36:41;98332.38;;;3.83;100.00
79481;BME280;68944;48.262;14.208;2024-03-06T05:39:06;98340.31;;;3.74;100.00
79481;BME280;68944;48.262;14.208;2024-03-06T05:41:35;98346.72;;;3.72;100.00
79481;BME280;68944;48.262;14.208;2024-03-06T05:44:01;98357.81;;;3.74;100.00
79481;BME280;68944;48.262;14.208;2024-03-06T05:46:26;98350.44;;;3.78;100.00
79481;BME280;68944;48.262;14.208;2024-03-06T05:48:52;98349.44;;;3.79;100.00
79481;BME280;68944;48.262;14.208;2024-03-06T05:51:18;98354.88;;;3.77;100.00
79481;BME280;68944;48.262;14.208;2024-03-06T05:53:43;98356.97;;;3.82;100.00
79481;BME280;68944;48.262;14.208;2024-03-06T05:56:09;98349.66;;;3.92;100.00
79481;BME280;68944;48.262;14.208;2024-03-06T05:58:35;98361.28;;;3.98;100.00
79481;BME280;68944;48.262;14.208;2024-03-06T06:01:01;98356.16;;;4.05;100.00
79481;BME280;68944;48.262;14.208;2024-03-06T06:03:29;98354.44;;;4.12;100.00
79481;BME280;68944;48.262;14.208;2024-03-06T06:05:57;98357.34;;;4.17;100.00
79481;BME280;68944;48.262;14.208;2024-03-06T06:08:27;98360.53;;;4.28;100.00
79481;BME280;68944;48.262;14.208;2024-03-06T06:10:53;98364.09;;;4.35;100.00
79481;BME280;68944;48.262;14.208;2024-03-06T06:13:20;98362.75;;;4.39;100.00
79481;BME280;68944;48.262;14.208;2024-03-06T06:15:46;98364.81;;;4.44;100.00
79481;BME280;68944;48.262;14.208;2024-03-06T06:18:12;98370.38;;;4.49;100.00
79481;BME280;68944;48.262;14.208;2024-03-06T06:20:37;98369.44;;;4.57;100.00
79481;BME280;68944;48.262;14.208;2024-03-06T06:23:04;98375.16;;;4.61;100.00
79481;BME280;68944;48.262;14.208;2024-03-06T06:25:29;98384.13;;;4.66;100.00
79481;BME280;68944;48.262;14.208;2024-03-06T06:27:55;98377.78;;;4.76;100.00
79481;BME280;68944;48.262;14.208;2024-03-06T06:30:21;98379.34;;;4.85;100.00
79481;BME280;68944;48.262;14.208;2024-03-06T06:32:46;98378.44;;;4.93;100.00
79481;BME280;68944;48.262;14.208;2024-03-06T06:35:12;98377.72;;;4.99;100.00
79481;BME280;68944;48.262;14.208;2024-03-06T06:37:41;98374.53;;;5.04;100.00
79481;BME280;68944;48.262;14.208;2024-03-06T06:40:07;98377.06;;;5.12;100.00
79481;BME280;68944;48.262;14.208;2024-03-06T06:42:34;98385.84;;;5.20;100.00
79481;BME280;68944;48.262;14.208;2024-03-06T06:44:59;98380.25;;;5.23;100.00
79481;BME280;68944;48.262;14.208;2024-03-06T06:47:26;98377.78;;;5.37;100.00
79481;BME280;68944;48.262;14.208;2024-03-06T06:49:58;98390.00;;;5.44;100.00
79481;BME280;68944;48.262;14.208;2024-03-06T06:52:24;98391.69;;;5.52;100.00
79481;BME280;68944;48.262;14.208;2024-03-06T06:54:53;98385.06;;;5.56;100.00
79481;BME280;68944;48.262;14.208;2024-03-06T06:57:18;98384.28;;;5.56;100.00
79481;BME280;68944;48.262;14.208;2024-03-06T06:59:45;98395.66;;;5.63;100.00
79481;BME280;68944;48.262;14.208;2024-03-06T07:02:10;98392.50;;;5.68;100.00
79481;BME280;68944;48.262;14.208;2024-03-06T07:04:36;98393.97;;;5.77;100.00
79481;BME280;68944;48.262;14.208;2024-03-06T07:07:01;98400.31;;;5.83;100.00
79481;BME280;68944;48.262;14.208;2024-03-06T07:09:27;98395.06;;;5.83;100.00
79481;BME280;68944;48.262;14.208;2024-03-06T07:11:54;98402.19;;;5.89;100.00
79481;BME280;68944;48.262;14.208;2024-03-06T07:14:27;98404.31;;;6.01;100.00
79481;BME280;68944;48.262;14.208;2024-03-06T07:16:53;98399.88;;;6.01;100.00
79481;BME280;68944;48.262;14.208;2024-03-06T07:19:19;98401.78;;;6.08;100.00
79481;BME280;68944;48.262;14.208;2024-03-06T07:21:45;98404.06;;;6.11;100.00
79481;BME280;68944;48.262;14.208;2024-03-06T07:24:10;98409.00;;;6.21;100.00
79481;BME280;68944;48.262;14.208;2024-03-06T07:26:36;98407.56;;;6.18;100.00
79481;BME280;68944;48.262;14.208;2024-03-06T07:29:02;98408.81;;;6.22;100.00
79481;BME280;68944;48.262;14.208;2024-03-06T07:31:28;98409.06;;;6.28;100.00
79481;BME280;68944;48.262;14.208;2024-03-06T07:33:53;98404.22;;;6.31;100.00
79481;BME280;68944;48.262;14.208;2024-03-06T07:36:19;98404.28;;;6.38;100.00
79481;BME280;68944;48.262;14.208;2024-03-06T07:38:44;98411.59;;;6.43;100.00
79481;BME280;68944;48.262;14.208;2024-03-06T07:41:10;98407.34;;;6.42;100.00
79481;BME280;68944;48.262;14.208;2024-03-06T07:43:37;98412.22;;;6.45;100.00
79481;BME280;68944;48.262;14.208;2024-03-06T07:46:04;98406.84;;;6.53;100.00
79481;BME280;68944;48.262;14.208;2024-03-06T07:48:36;98419.03;;;6.61;100.00
79481;BME280;68944;48.262;14.208;2024-03-06T07:51:02;98422.28;;;6.63;100.00
79481;BME280;68944;48.262;14.208;2024-03-06T07:53:28;98419.66;;;6.63;100.00
79481;BME280;68944;48.262;14.208;2024-03-06T07:55:53;98431.56;;;6.59;100.00
79481;BME280;68944;48.262;14.208;2024-03-06T07:58:19;98435.44;;;6.63;100.00
79481;BME280;68944;48.262;14.208;2024-03-06T08:00:46;98441.38;;;6.65;100.00
79481;BME280;68944;48.262;14.208;2024-03-06T08:03:12;98441.53;;;6.64;100.00
79481;BME280;68944;48.262;14.208;2024-03-06T08:05:39;98444.22;;;6.70;100.00
79481;BME280;68944;48.262;14.208;2024-03-06T08:08:04;98446.69;;;6.72;100.00
79481;BME280;68944;48.262;14.208;2024-03-06T08:10:30;98433.50;;;6.72;100.00
79481;BME280;68944;48.262;14.208;2024-03-06T08:12:58;98452.38;;;6.76;100.00
79481;BME280;68944;48.262;14.208;2024-03-06T08:15:24;98448.91;;;6.75;100.00
79481;BME280;68944;48.262;14.208;2024-03-06T08:17:49;98454.53;;;6.65;100.00
79481;BME280;68944;48.262;14.208;2024-03-06T08:20:16;98457.38;;;6.70;100.00
79481;BME280;68944;48.262;14.208;2024-03-06T08:22:42;98453.13;;;6.69;100.00
79481;BME280;68944;48.262;14.208;2024-03-06T08:25:10;98450.09;;;6.72;100.00
79481;BME280;68944;48.262;14.208;2024-03-06T08:27:39;98458.25;;;6.78;100.00
79481;BME280;68944;48.262;14.208;2024-03-06T08:30:06;98469.59;;;6.78;100.00
79481;BME280;68944;48.262;14.208;2024-03-06T08:32:32;98465.16;;;6.79;100.00
79481;BME280;68944;48.262;14.208;2024-03-06T08:35:09;98467.34;;;6.75;100.00
79481;BME280;68944;48.262;14.208;2024-03-06T08:37:41;98469.59;;;6.78;100.00
79481;BME280;68944;48.262;14.208;2024-03-06T08:40:08;98469.03;;;6.83;100.00
79481;BME280;68944;48.262;14.208;2024-03-06T08:42:43;98484.09;;;6.96;100.00
79481;BME280;68944;48.262;14.208;2024-03-06T08:45:09;98469.50;;;6.93;100.00
79481;BME280;68944;48.262;14.208;2024-03-06T08:47:36;98480.47;;;6.97;100.00
79481;BME280;68944;48.262;14.208;2024-03-06T08:50:02;98474.41;;;6.97;100.00
79481;BME280;68944;48.262;14.208;2024-03-06T08:52:29;98483.28;;;6.96;100.00
79481;BME280;68944;48.262;14.208;2024-03-06T08:54:56;98479.28;;;7.00;100.00
79481;BME280;68944;48.262;14.208;2024-03-06T08:57:21;98473.44;;;7.04;100.00
79481;BME280;68944;48.262;14.208;2024-03-06T08:59:47;98480.06;;;7.00;100.00
79481;BME280;68944;48.262;14.208;2024-03-06T09:02:14;98478.75;;;7.11;100.00
79481;BME280;68944;48.262;14.208;2024-03-06T09:04:41;98475.50;;;7.09;100.00
79481;BME280;68944;48.262;14.208;2024-03-06T09:07:07;98478.88;;;7.03;100.00
79481;BME280;68944;48.262;14.208;2024-03-06T09:09:34;98495.59;;;7.17;100.00
79481;BME280;68944;48.262;14.208;2024-03-06T09:12:03;98491.38;;;7.23;100.00
79481;BME280;68944;48.262;14.208;2024-03-06T09:14:34;98490.06;;;7.40;100.00
79481;BME280;68944;48.262;14.208;2024-03-06T09:17:00;98487.38;;;7.34;100.00
79481;BME280;68944;48.262;14.208;2024-03-06T09:19:26;98487.66;;;7.46;100.00
79481;BME280;68944;48.262;14.208;2024-03-06T09:21:52;98484.00;;;7.47;100.00
79481;BME280;68944;48.262;14.208;2024-03-06T09:24:20;98492.97;;;7.53;100.00
79481;BME280;68944;48.262;14.208;2024-03-06T09:26:47;98493.63;;;7.61;100.00
79481;BME280;68944;48.262;14.208;2024-03-06T09:29:13;98485.91;;;7.60;100.00
79481;BME280;68944;48.262;14.208;2024-03-06T09:31:38;98489.56;;;7.66;100.00
79481;BME280;68944;48.262;14.208;2024-03-06T09:34:04;98491.00;;;7.68;100.00
79481;BME280;68944;48.262;14.208;2024-03-06T09:36:29;98493.44;;;7.70;100.00
79481;BME280;68944;48.262;14.208;2024-03-06T09:38:55;98495.09;;;7.71;100.00
79481;BME280;68944;48.262;14.208;2024-03-06T09:41:22;98496.72;;;7.72;100.00
79481;BME280;68944;48.262;14.208;2024-03-06T09:43:47;98493.53;;;7.90;100.00
79481;BME280;68944;48.262;14.208;2024-03-06T09:46:14;98497.00;;;7.97;100.00
79481;BME280;68944;48.262;14.208;2024-03-06T09:48:47;98491.84;;;7.76;100.00
79481;BME280;68944;48.262;14.208;2024-03-06T09:51:14;98493.06;;;7.73;100.00
79481;BME280;68944;48.262;14.208;2024-03-06T09:53:40;98487.97;;;7.65;100.00
79481;BME280;68944;48.262;14.208;2024-03-06T09:56:07;98494.03;;;7.65;100.00
79481;BME280;68944;48.262;14.208;2024-03-06T09:58:34;98497.13;;;7.76;100.00
79481;BME280;68944;48.262;14.208;2024-03-06T10:01:01;98495.50;;;7.81;100.00
79481;BME280;68944;48.262;14.208;2024-03-06T10:03:30;98499.59;;;7.84;100.00
79481;BME280;68944;48.262;14.208;2024-03-06T10:05:56;98487.81;;;7.80;100.00
79481;BME280;68944;48.262;14.208;2024-03-06T10:08:22;98497.63;;;7.93;100.00
79481;BME280;68944;48.262;14.208;2024-03-06T10:10:50;98495.16;;;7.98;100.00
79481;BME280;68944;48.262;14.208;2024-03-06T10:13:17;98492.16;;;8.01;100.00
79481;BME280;68944;48.262;14.208;2024-03-06T10:15:57;98498.03;;;8.03;100.00
79481;BME280;68944;48.262;14.208;2024-03-06T10:18:26;98498.66;;;8.05;100.00
79481;BME280;68944;48.262;14.208;2024-03-06T10:20:52;98492.78;;;8.10;100.00
79481;BME280;68944;48.262;14.208;2024-03-06T10:23:20;98502.53;;;8.23;100.00
79481;BME280;68944;48.262;14.208;2024-03-06T10:25:47;98493.63;;;8.31;100.00
79481;BME280;68944;48.262;14.208;2024-03-06T10:28:18;98496.91;;;8.40;100.00
79481;BME280;68944;48.262;14.208;2024-03-06T10:30:44;98501.41;;;8.46;100.00
79481;BME280;68944;48.262;14.208;2024-03-06T10:33:15;98496.91;;;8.47;100.00
79481;BME280;68944;48.262;14.208;2024-03-06T10:35:42;98492.06;;;8.57;100.00
79481;BME280;68944;48.262;14.208;2024-03-06T10:38:09;98502.22;;;8.67;100.00
79481;BME280;68944;48.262;14.208;2024-03-06T10:40:43;98499.81;;;8.72;100.00
79481;BME280;68944;48.262;14.208;2024-03-06T10:43:10;98495.72;;;8.76;100.00
79481;BME280;68944;48.262;14.208;2024-03-06T10:45:50;98507.31;;;8.82;100.00
79481;BME280;68944;48.262;14.208;2024-03-06T10:48:19;98501.66;;;8.79;100.00
79481;BME280;68944;48.262;14.208;2024-03-06T10:50:46;98501.84;;;8.63;100.00
79481;BME280;68944;48.262;14.208;2024-03-06T10:53:14;98504.25;;;8.65;100.00
79481;BME280;68944;48.262;14.208;2024-03-06T10:55:40;98500.16;;;8.56;100.00
79481;BME280;68944;48.262;14.208;2024-03-06T10:58:10;98505.44;;;8.56;100.00
79481;BME280;68944;48.262;14.208;2024-03-06T11:00:39;98499.41;;;8.62;100.00
79481;BME280;68944;48.262;14.208;2024-03-06T11:03:10;98501.63;;;8.65;100.00
79481;BME280;68944;48.262;14.208;2024-03-06T11:05:39;98490.66;;;8.82;100.00
79481;BME280;68944;48.262;14.208;2024-03-06T11:08:09;98500.59;;;9.07;100.00
79481;BME280;68944;48.262;14.208;2024-03-06T11:10:39;98500.41;;;9.15;100.00
79481;BME280;68944;48.262;14.208;2024-03-06T11:13:21;98494.69;;;9.32;100.00
79481;BME280;68944;48.262;14.208;2024-03-06T11:15:47;98494.06;;;9.23;100.00
79481;BME280;68944;48.262;14.208;2024-03-06T11:23:29;98485.16;;;9.17;100.00
79481;BME280;68944;48.262;14.208;2024-03-06T11:26:05;98486.34;;;9.21;100.00
79481;BME280;68944;48.262;14.208;2024-03-06T11:28:33;98485.69;;;9.40;100.00
79481;BME280;68944;48.262;14.208;2024-03-06T11:31:09;98479.97;;;9.50;100.00
79481;BME280;68944;48.262;14.208;2024-03-06T11:33:40;98472.13;;;9.82;100.00
79481;BME280;68944;48.262;14.208;2024-03-06T11:36:33;98474.81;;;10.15;100.00
79481;BME280;68944;48.262;14.208;2024-03-06T11:39:06;98467.09;;;10.45;100.00
79481;BME280;68944;48.262;14.208;2024-03-06T11:41:47;98464.13;;;10.86;100.00
79481;BME280;68944;48.262;14.208;2024-03-06T11:44:14;98468.94;;;10.96;100.00
79481;BME280;68944;48.262;14.208;2024-03-06T11:49:20;98467.91;;;10.97;100.00
79481;BME280;68944;48.262;14.208;2024-03-06T11:51:47;98474.06;;;10.91;100.00
79481;BME280;68944;48.262;14.208;2024-03-06T11:54:14;98470.53;;;10.97;100.00
79481;BME280;68944;48.262;14.208;2024-03-06T11:56:40;98471.94;;;11.00;100.00
79481;BME280;68944;48.262;14.208;2024-03-06T11:59:06;98473.41;;;10.96;100.00
79481;BME280;68944;48.262;14.208;2024-03-06T12:01:33;98471.00;;;10.94;100.00
79481;BME280;68944;48.262;14.208;2024-03-06T12:04:00;98471.81;;;10.69;100.00
79481;BME280;68944;48.262;14.208;2024-03-06T12:06:27;98474.69;;;10.67;100.00
79481;BME280;68944;48.262;14.208;2024-03-06T12:08:53;98469.94;;;10.44;100.00
79481;BME280;68944;48.262;14.208;2024-03-06T12:11:19;98466.84;;;10.47;100.00
79481;BME280;68944;48.262;14.208;2024-03-06T12:13:48;98470.97;;;10.43;100.00
79481;BME280;68944;48.262;14.208;2024-03-06T12:16:14;98471.16;;;10.41;100.00
79481;BME280;68944;48.262;14.208;2024-03-06T12:18:40;98467.91;;;10.39;100.00
79481;BME280;68944;48.262;14.208;2024-03-06T12:21:05;98467.72;;;10.41;100.00
79481;BME280;68944;48.262;14.208;2024-03-06T12:23:31;98461.16;;;10.18;100.00
79481;BME280;68944;48.262;14.208;2024-03-06T12:26:06;98469.59;;;10.01;100.00
79481;BME280;68944;48.262;14.208;2024-03-06T12:28:34;98462.47;;;9.95;100.00
79481;BME280;68944;48.262;14.208;2024-03-06T12:31:04;98466.97;;;9.94;100.00
79481;BME280;68944;48.262;14.208;2024-03-06T12:33:30;98462.94;;;10.56;100.00
79481;BME280;68944;48.262;14.208;2024-03-06T12:36:06;98456.75;;;10.88;100.00
79481;BME280;68944;48.262;14.208;2024-03-06T12:38:36;98455.09;;;11.13;100.00
79481;BME280;68944;48.262;14.208;2024-03-06T12:41:02;98462.00;;;10.95;100.00
79481;BME280;68944;48.262;14.208;2024-03-06T12:43:29;98460.97;;;11.71;100.00
79481;BME280;68944;48.262;14.208;2024-03-06T12:45:55;98461.13;;;12.26;100.00
79481;BME280;68944;48.262;14.208;2024-03-06T12:48:23;98461.91;;;12.27;100.00
79481;BME280;68944;48.262;14.208;2024-03-06T12:50:49;98461.81;;;12.03;100.00
79481;BME280;68944;48.262;14.208;2024-03-06T12:53:21;98463.56;;;12.52;100.00
79481;BME280;68944;48.262;14.208;2024-03-06T12:55:48;98459.56;;;12.97;100.00